Time;durP1;ratioP1;P1;durP2;ratioP2;P2;SDS_P1;SDS_P2;PMS_P1;PMS_P2;Temp;Humidity;BMP_temperature;BMP_pressure;BME280_temperature;BME280_humidity;BME280_pressure;Samples;Min_cycle;Max_cycle;Signal;HPM_P1;HPM_P2
2024/04/01 00:02:22;;;;;;;11.80;5.40;;;;;;;11.19;100.00;100981.16;105717;1257;72967;-79
2024/04/01 00:04:49;;;;;;;8.60;5.20;;;;;;;11.18;100.00;100988.71;105772;1256;63517;-79
2024/04/01 00:07:17;;;;;;;7.30;5.10;;;;;;;11.17;100.00;100989.64;105799;1255;72887;-78
2024/04/01 00:09:46;;;;;;;6.90;4.80;;;;;;;11.17;100.00;100984.24;105752;1256;60546;-76
2024/04/01 00:12:13;;;;;;;10.40;5.70;;;;;;;11.15;100.00;100982.40;106261;1258;60543;-74
2024/04/01 00:14:40;;;;;;;7.80;5.20;;;;;;;11.14;100.00;100980.36;106073;1251;73898;-75
2024/04/01 00:17:08;;;;;;;8.80;5.00;;;;;;;11.13;100.00;100980.42;105912;1255;64233;-77
2024/04/01 00:19:35;;;;;;;11.30;4.60;;;;;;;11.11;100.00;100981.92;105866;1251;72362;-76
2024/04/01 00:22:02;;;;;;;4.70;4.30;;;;;;;11.10;100.00;100993.02;105850;1253;60556;-75
2024/04/01 00:24:31;;;;;;;8.40;5.60;;;;;;;11.09;100.00;101008.63;105852;1255;60358;-76
2024/04/01 00:26:59;;;;;;;6.30;5.70;;;;;;;11.07;100.00;101020.86;105813;1251;73956;-77
2024/04/01 00:29:26;;;;;;;7.60;5.20;;;;;;;11.04;100.00;101022.05;105928;1251;63805;-78
2024/04/01 00:31:54;;;;;;;9.60;5.80;;;;;;;11.01;100.00;101018.36;105895;1257;72740;-77
2024/04/01 00:34:21;;;;;;;10.50;5.60;;;;;;;10.97;100.00;101016.84;105809;1251;60481;-76
2024/04/01 00:36:54;;;;;;;6.20;5.50;;;;;;;10.93;100.00;101020.42;105923;1256;60940;-74
2024/04/01 00:39:22;;;;;;;8.10;5.50;;;;;;;10.88;100.00;101022.91;105777;1257;73042;-78
2024/04/01 00:41:49;;;;;;;7.90;5.10;;;;;;;10.84;100.00;101023.30;105725;1251;64769;-80
2024/04/01 00:44:17;;;;;;;7.80;5.20;;;;;;;10.80;100.00;101028.77;105853;1251;72749;-77
2024/04/01 00:46:44;;;;;;;8.10;4.80;;;;;;;10.76;100.00;101039.85;105837;1251;60482;-76
2024/04/01 00:49:12;;;;;;;8.80;4.50;;;;;;;10.72;100.00;101043.54;106410;1251;60432;-74
2024/04/01 00:51:42;;;;;;;11.70;6.90;;;;;;;10.68;100.00;101042.39;106110;1251;72316;-77
2024/04/01 00:54:10;;;;;;;7.70;4.20;;;;;;;10.64;100.00;101046.98;105786;1254;62465;-78
2024/04/01 00:56:38;;;;;;;7.90;4.60;;;;;;;10.61;100.00;101046.63;105769;1257;71413;-74
2024/04/01 00:59:05;;;;;;;11.00;5.40;;;;;;;10.56;100.00;101037.20;105771;1257;60488;-77
2024/04/01 01:01:33;;;;;;;7.20;4.50;;;;;;;10.53;100.00;101032.13;105825;1257;60424;-77
2024/04/01 01:04:00;;;;;;;9.20;5.00;;;;;;;10.50;100.00;101026.73;105806;1251;74421;-76
2024/04/01 01:06:28;;;;;;;8.70;5.20;;;;;;;10.48;100.00;101022.48;105783;1256;63712;-76
2024/04/01 01:08:56;;;;;;;5.00;4.10;;;;;;;10.47;100.00;101025.67;105778;1258;71280;-77
2024/04/01 01:11:24;;;;;;;6.60;3.90;;;;;;;10.47;100.00;101032.15;105751;1256;60518;-74
2024/04/01 01:13:51;;;;;;;4.60;3.90;;;;;;;10.45;100.00;101035.73;105714;1257;60491;-74
2024/04/01 01:29:32;;;;;;;7.80;3.70;;;;;;;10.47;100.00;101044.73;102659;1290;602639;-79
2024/04/01 01:32:00;;;;;;;7.10;3.50;;;;;;;10.46;100.00;101048.98;104963;1266;59747;-78
2024/04/01 01:34:27;;;;;;;7.40;3.40;;;;;;;10.47;100.00;101054.01;105637;1260;60183;-75
2024/04/01 01:36:55;;;;;;;4.90;3.60;;;;;;;10.46;100.00;101050.88;105706;1260;71563;-75
2024/04/01 01:39:22;;;;;;;4.10;3.40;;;;;;;10.46;100.00;101045.81;105701;1259;63915;-77
2024/04/01 01:41:48;;;;;;;5.50;2.90;;;;;;;10.45;100.00;101042.71;105658;1260;201405;-78
2024/04/01 01:44:15;;;;;;;4.40;3.40;;;;;;;10.45;100.00;101047.45;107051;1254;60454;-75
2024/04/01 01:46:43;;;;;;;6.10;3.20;;;;;;;10.44;100.00;101049.91;107899;1253;59700;-76
2024/04/01 01:49:12;;;;;;;7.10;3.30;;;;;;;10.44;100.00;101046.13;107065;1256;73026;-75
2024/04/01 01:51:40;;;;;;;3.70;3.30;;;;;;;10.43;100.00;101048.11;105841;1257;63775;-77
2024/04/01 01:54:07;;;;;;;5.20;3.20;;;;;;;10.43;100.00;101045.48;105927;1257;72622;-76
2024/04/01 01:56:33;;;;;;;5.50;3.40;;;;;;;10.41;100.00;101044.48;105874;1256;60629;-76
2024/04/01 01:59:02;;;;;;;10.80;4.90;;;;;;;10.40;100.00;101041.04;106000;1257;60421;-77
2024/04/01 02:01:31;;;;;;;9.00;6.60;;;;;;;10.38;100.00;101047.11;105997;1257;73789;-78
2024/04/01 02:03:58;;;;;;;7.40;6.10;;;;;;;10.36;100.00;101052.64;105979;1253;63780;-74
2024/04/01 02:06:25;;;;;;;4.50;3.50;;;;;;;10.34;100.00;101054.48;105770;1255;72612;-78
2024/04/01 02:08:52;;;;;;;9.20;3.60;;;;;;;10.32;100.00;101047.58;105809;1257;60363;-77
2024/04/01 02:11:18;;;;;;;5.40;3.60;;;;;;;10.31;100.00;101035.77;105861;1255;60513;-76
2024/04/01 02:13:45;;;;;;;5.90;3.70;;;;;;;10.29;100.00;101030.61;105895;1255;73837;-76
2024/04/01 02:16:12;;;;;;;6.60;2.80;;;;;;;10.27;100.00;101027.89;105990;1256;63806;-74
2024/04/01 02:18:39;;;;;;;8.50;3.70;;;;;;;10.26;100.00;101029.54;105988;1257;72685;-74
2024/04/01 02:21:06;;;;;;;5.40;3.10;;;;;;;10.25;100.00;101030.28;105831;1254;60446;-78
2024/04/01 02:23:33;;;;;;;6.00;3.20;;;;;;;10.24;100.00;101036.83;105976;1253;60417;-76
2024/04/01 02:26:00;;;;;;;11.60;4.50;;;;;;;10.23;100.00;101038.97;105779;1255;72592;-76
2024/04/01 02:28:31;;;;;;;5.70;3.50;;;;;;;10.22;100.00;101033.94;105914;1256;63815;-77
2024/04/01 02:30:58;;;;;;;5.50;3.60;;;;;;;10.21;100.00;101026.48;105713;1256;71179;-78
2024/04/01 02:33:27;;;;;;;7.10;4.20;;;;;;;10.20;100.00;101018.84;105869;1257;60535;-76
2024/04/01 02:35:53;;;;;;;10.80;4.80;;;;;;;10.18;100.00;101012.80;105850;1252;60411;-76
2024/04/01 02:38:20;;;;;;;8.00;4.80;;;;;;;10.18;100.00;101006.16;105865;1255;72871;-76
2024/04/01 02:40:47;;;;;;;10.00;5.20;;;;;;;10.18;100.00;101002.85;105768;1255;63731;-77
2024/04/01 02:43:14;;;;;;;10.30;4.40;;;;;;;10.19;100.00;101003.52;105876;1254;72580;-76
2024/04/01 02:45:40;;;;;;;7.30;3.90;;;;;;;10.19;100.00;101000.53;106004;1256;60536;-76
2024/04/01 02:48:07;;;;;;;3.60;3.20;;;;;;;10.19;100.00;101002.09;106026;1255;60416;-78
2024/04/01 02:50:34;;;;;;;9.00;3.20;;;;;;;10.19;100.00;100997.23;105948;1256;73730;-76
2024/04/01 02:53:01;;;;;;;3.40;2.80;;;;;;;10.18;100.00;100994.98;105822;1254;62723;-75
2024/04/01 02:55:28;;;;;;;5.90;3.30;;;;;;;10.17;100.00;100988.08;105905;1257;72561;-79
2024/04/01 02:57:55;;;;;;;7.30;3.20;;;;;;;10.16;100.00;100985.30;105845;1256;60501;-76
2024/04/01 03:00:22;;;;;;;4.50;3.30;;;;;;;10.15;100.00;100982.21;105963;1254;60386;-77
2024/04/01 03:02:50;;;;;;;7.70;3.30;;;;;;;10.13;100.00;100979.37;105852;1254;74658;-77
2024/04/01 03:05:17;;;;;;;5.20;3.20;;;;;;;10.10;100.00;100979.00;105842;1257;62728;-79
2024/04/01 03:07:44;;;;;;;8.50;3.10;;;;;;;10.07;100.00;100986.63;105983;1257;72486;-77
2024/04/01 03:10:11;;;;;;;7.40;3.30;;;;;;;10.05;100.00;100990.77;106062;1256;60517;-77
2024/04/01 03:12:41;;;;;;;3.50;3.10;;;;;;;10.04;100.00;100992.94;106038;1252;60539;-78
2024/04/01 03:15:09;;;;;;;5.80;3.30;;;;;;;10.04;100.00;100989.09;105952;1254;73942;-76
2024/04/01 03:17:37;;;;;;;5.20;2.90;;;;;;;10.02;100.00;100981.66;105870;1257;63554;-76
2024/04/01 03:20:06;;;;;;;6.80;4.10;;;;;;;10.01;100.00;100983.09;105878;1255;71513;-79
2024/04/01 03:22:33;;;;;;;8.20;3.30;;;;;;;10.01;100.00;100983.83;105842;1257;61934;-79
2024/04/01 03:25:01;;;;;;;6.10;3.30;;;;;;;10.00;100.00;100982.69;105942;1252;60450;-76
2024/04/01 03:27:28;;;;;;;6.90;3.50;;;;;;;9.97;100.00;100981.56;106333;1249;73938;-78
2024/04/01 03:29:55;;;;;;;8.70;3.50;;;;;;;9.97;100.00;100986.47;106334;1257;62732;-78
2024/04/01 03:32:22;;;;;;;11.40;4.30;;;;;;;9.97;100.00;100981.05;106247;1254;72631;-77
2024/04/01 03:34:50;;;;;;;7.60;4.00;;;;;;;9.96;100.00;100982.49;106220;1253;61782;-78
2024/04/01 03:37:17;;;;;;;10.50;5.10;;;;;;;9.98;100.00;100976.83;106206;1251;60552;-78
2024/04/01 03:39:44;;;;;;;10.40;4.30;;;;;;;9.99;100.00;100976.43;106063;1253;72315;-81
2024/04/01 03:42:14;;;;;;;9.40;5.30;;;;;;;9.99;100.00;100978.17;106284;1253;63744;-79
2024/04/01 03:44:42;;;;;;;9.00;4.40;;;;;;;9.99;100.00;100981.50;106030;1254;71350;-80
2024/04/01 03:47:10;;;;;;;7.00;4.30;;;;;;;9.98;100.00;100978.89;106244;1254;61922;-79
2024/04/01 03:49:38;;;;;;;8.40;4.20;;;;;;;9.99;100.00;100975.38;106288;1253;60449;-78
2024/04/01 03:52:05;;;;;;;10.30;4.50;;;;;;;10.00;100.00;100982.63;106406;1254;72037;-77
2024/04/01 03:54:34;;;;;;;12.20;4.80;;;;;;;10.03;100.00;100989.46;107367;1254;62544;-79
2024/04/01 03:57:01;;;;;;;7.90;4.00;;;;;;;10.12;100.00;101001.78;107412;1253;72529;-76
2024/04/01 03:59:28;;;;;;;8.90;3.50;;;;;;;10.26;100.00;100999.48;106999;1253;61865;-76
2024/04/01 04:01:57;;;;;;;9.50;4.30;;;;;;;10.41;100.00;100996.59;106667;1253;60411;-79
2024/04/01 04:04:24;;;;;;;13.40;4.20;;;;;;;10.57;100.00;101003.27;106639;1251;72534;-77
2024/04/01 04:06:50;;;;;;;11.20;4.30;;;;;;;10.72;100.00;101003.17;106239;1254;62353;-78
2024/04/01 04:09:17;;;;;;;11.00;4.20;;;;;;;10.92;100.00;101001.72;106358;1254;73420;-77
2024/04/01 04:11:49;;;;;;;8.80;3.90;;;;;;;11.12;100.00;100996.39;106268;1254;61952;-78
2024/04/01 04:14:19;;;;;;;13.90;4.60;;;;;;;11.36;100.00;100992.97;106497;1253;59647;-77
2024/04/01 04:16:46;;;;;;;6.40;4.10;;;;;;;11.71;100.00;100984.29;106328;1254;73787;-75
2024/04/01 04:19:16;;;;;;;7.00;4.40;;;;;;;12.07;100.00;100974.23;106236;1254;63215;-77
2024/04/01 04:21:45;;;;;;;5.70;3.60;;;;;;;12.42;100.00;100969.17;106114;1255;72661;-75
2024/04/01 04:24:13;;;;;;;6.00;3.80;;;;;;;12.60;100.00;100975.39;106174;1251;60501;-78
2024/04/01 04:26:41;;;;;;;12.80;4.20;;;;;;;12.65;100.00;100981.71;106136;1254;60970;-79
2024/04/01 04:29:08;;;;;;;14.50;4.40;;;;;;;12.68;100.00;100994.54;106209;1249;73730;-79
2024/04/01 04:31:35;;;;;;;11.00;5.50;;;;;;;12.70;100.00;101008.09;106163;1251;63847;-79
2024/04/01 04:34:05;;;;;;;11.10;5.50;;;;;;;12.75;100.00;101014.48;106126;1253;72545;-78
2024/04/01 04:36:32;;;;;;;16.60;7.20;;;;;;;12.84;98.85;101017.92;106048;1253;60622;-78
2024/04/01 04:38:58;;;;;;;14.00;6.40;;;;;;;12.94;96.79;101019.90;106165;1255;60422;-79
2024/04/01 04:41:25;;;;;;;14.70;7.50;;;;;;;13.02;94.10;101016.05;106316;1253;72567;-79
2024/04/01 04:43:51;;;;;;;12.00;7.10;;;;;;;13.09;92.09;101021.94;108305;1253;63704;-77
2024/04/01 04:46:18;;;;;;;12.10;6.90;;;;;;;13.17;90.67;101018.61;107727;1253;71355;-79
2024/04/01 04:48:49;;;;;;;16.90;7.90;;;;;;;13.26;89.17;101004.52;107191;1253;60526;-77
2024/04/01 04:51:16;;;;;;;13.10;6.90;;;;;;;13.37;86.15;100987.86;106096;1254;60446;-78
2024/04/01 04:53:42;;;;;;;12.30;6.70;;;;;;;13.50;83.19;100978.92;106107;1249;73804;-77
2024/04/01 04:56:09;;;;;;;20.50;8.50;;;;;;;13.72;80.99;100970.27;106268;1254;63696;-77
2024/04/01 04:58:36;;;;;;;17.60;8.70;;;;;;;13.95;76.49;100967.08;106175;1252;72602;-75
2024/04/01 05:01:05;;;;;;;14.90;8.50;;;;;;;14.15;72.57;100965.18;106158;1254;60555;-77
2024/04/01 05:03:33;;;;;;;20.30;9.10;;;;;;;14.29;69.96;100957.55;106092;1255;60533;-76
2024/04/01 05:06:01;;;;;;;23.40;9.10;;;;;;;14.39;67.69;100948.08;106109;1253;73684;-76
2024/04/01 05:08:28;;;;;;;14.90;9.10;;;;;;;14.53;65.71;100928.23;106128;1252;63836;-76
2024/04/01 05:10:56;;;;;;;14.10;8.60;;;;;;;14.85;63.88;100908.70;106126;1254;72675;-80
2024/04/01 05:16:24;;;;;;;16.40;8.70;;;;;;;16.05;56.17;100891.15;102732;1291;600782;-76
2024/04/01 05:18:51;;;;;;;19.30;10.00;;;;;;;16.54;52.76;100888.54;104856;1272;60075;-77
2024/04/01 05:21:19;;;;;;;30.60;11.10;;;;;;;16.87;48.66;100887.30;105353;1259;59648;-78
2024/04/01 05:23:46;;;;;;;22.70;11.40;;;;;;;17.07;47.50;100893.55;105282;1262;73016;-76
2024/04/01 05:26:15;;;;;;;24.20;12.10;;;;;;;17.29;46.39;100901.11;105420;1258;63048;-77
2024/04/01 05:28:43;;;;;;;30.30;13.20;;;;;;;17.54;45.58;100904.09;109118;1257;71162;-75
2024/04/01 05:31:10;;;;;;;29.30;14.50;;;;;;;17.87;44.21;100915.44;109068;1257;243100;-76
2024/04/01 05:33:38;;;;;;;33.50;15.20;;;;;;;18.23;43.50;100922.13;109300;1257;59297;-77
2024/04/01 05:36:06;;;;;;;27.70;15.80;;;;;;;18.53;42.20;100923.31;109464;1254;71706;-77
2024/04/01 05:38:33;;;;;;;26.80;15.40;;;;;;;18.77;41.79;100930.98;109444;1254;61937;-76
2024/04/01 05:41:01;;;;;;;25.30;14.40;;;;;;;18.94;40.41;100937.78;109450;1254;72664;-77
2024/04/01 05:43:30;;;;;;;26.70;12.30;;;;;;;19.02;39.56;100939.52;109389;1257;58587;-75
2024/04/01 05:45:57;;;;;;;30.00;14.60;;;;;;;19.09;39.18;100929.90;109527;1254;59079;-77
2024/04/01 05:48:25;;;;;;;27.90;11.70;;;;;;;19.20;38.79;100929.20;109557;1253;73843;-76
2024/04/01 05:50:53;;;;;;;23.40;11.60;;;;;;;19.30;37.88;100923.38;109584;1254;62400;-76
2024/04/01 05:53:22;;;;;;;23.10;11.50;;;;;;;19.45;37.24;100921.27;109421;1254;72503;-78
2024/04/01 05:55:49;;;;;;;25.90;12.10;;;;;;;19.68;36.62;100919.86;109421;1254;58978;-76
2024/04/01 05:58:17;;;;;;;27.20;12.50;;;;;;;20.05;36.03;100914.23;109435;1254;60079;-79
2024/04/01 06:00:44;;;;;;;26.00;13.30;;;;;;;20.52;35.31;100912.23;109423;1253;73681;-78
2024/04/01 06:03:11;;;;;;;35.70;16.30;;;;;;;21.03;34.81;100912.03;109456;1254;62844;-78
2024/04/01 06:05:39;;;;;;;34.90;17.40;;;;;;;21.50;33.55;100912.33;109434;1254;72902;-76
2024/04/01 06:08:06;;;;;;;36.40;19.20;;;;;;;21.90;32.54;100905.16;109456;1254;59252;-76
2024/04/01 06:10:37;;;;;;;41.60;19.60;;;;;;;22.23;31.76;100905.84;109470;1254;59371;-76
2024/04/01 06:13:04;;;;;;;41.50;21.00;;;;;;;22.61;31.15;100903.13;109440;1254;73926;-75
2024/04/01 06:15:32;;;;;;;35.00;17.80;;;;;;;22.99;30.00;100901.83;109434;1254;63568;-78
2024/04/01 06:17:59;;;;;;;35.00;16.70;;;;;;;23.31;29.27;100902.14;109440;1254;72538;-76
2024/04/01 06:20:27;;;;;;;32.80;17.60;;;;;;;23.64;28.83;100901.61;109400;1256;58841;-77
2024/04/01 06:22:54;;;;;;;30.20;15.60;;;;;;;23.97;28.37;100896.52;109321;1254;62214;-78
2024/04/01 06:25:21;;;;;;;21.50;12.30;;;;;;;24.17;27.51;100896.66;109281;1257;75973;-78
2024/04/01 06:27:49;;;;;;;20.50;11.90;;;;;;;24.36;27.14;100893.05;109430;1254;63007;-77
2024/04/01 06:30:17;;;;;;;21.60;10.70;;;;;;;24.57;26.19;100895.75;109419;1254;74479;-77
2024/04/01 06:32:44;;;;;;;20.10;10.30;;;;;;;24.71;25.88;100892.52;109318;1254;58902;-77
2024/04/01 06:35:12;;;;;;;15.10;9.30;;;;;;;24.82;25.69;100901.38;109291;1254;59812;-77
2024/04/01 06:37:39;;;;;;;14.40;8.50;;;;;;;25.01;25.42;100902.26;109417;1254;74722;-77
2024/04/01 06:40:07;;;;;;;14.20;7.10;;;;;;;25.20;25.06;100904.20;109422;1254;65221;-76
2024/04/01 06:42:34;;;;;;;12.30;6.60;;;;;;;25.42;24.70;100906.42;109247;1254;73111;-78
2024/04/01 06:45:02;;;;;;;13.80;5.90;;;;;;;25.60;23.96;100906.27;109411;1255;62663;-77
2024/04/01 06:47:29;;;;;;;14.80;6.40;;;;;;;25.68;23.69;100910.16;109192;1255;58992;-75
2024/04/01 06:49:57;;;;;;;13.20;6.40;;;;;;;25.79;23.69;100906.94;109418;1254;72793;-76
2024/04/01 06:52:24;;;;;;;16.50;6.50;;;;;;;25.96;23.28;100911.83;109649;1253;63894;-77
2024/04/01 06:54:52;;;;;;;11.10;5.80;;;;;;;26.02;23.09;100906.77;109607;1254;74016;-77
2024/04/01 06:57:19;;;;;;;13.30;6.80;;;;;;;26.01;23.12;100902.73;109576;1253;59940;-75
2024/04/01 06:59:47;;;;;;;13.80;6.70;;;;;;;26.15;23.64;100903.42;109537;1251;59055;-76
2024/04/01 07:02:14;;;;;;;12.70;6.90;;;;;;;26.44;23.22;100902.95;109489;1251;73709;-78
2024/04/01 07:04:42;;;;;;;9.80;5.60;;;;;;;26.55;22.31;100899.04;109665;1251;63405;-80
2024/04/01 07:07:09;;;;;;;9.70;5.10;;;;;;;26.49;22.15;100896.05;109607;1251;73762;-76
2024/04/01 07:09:38;;;;;;;16.30;5.60;;;;;;;26.43;22.28;100896.30;109609;1254;58746;-75
2024/04/01 07:12:05;;;;;;;10.80;6.20;;;;;;;26.63;22.83;100895.15;109651;1251;60704;-78
2024/04/01 07:14:33;;;;;;;12.90;5.80;;;;;;;26.96;22.33;100891.77;109662;1251;74055;-79
2024/04/01 07:17:01;;;;;;;10.90;5.70;;;;;;;27.22;22.26;100891.26;109619;1251;64109;-76
2024/04/01 07:19:28;;;;;;;11.30;6.00;;;;;;;27.49;21.54;100884.42;109594;1251;72980;-76
2024/04/01 07:21:56;;;;;;;22.40;6.50;;;;;;;27.55;21.61;100878.38;109560;1251;60829;-78
2024/04/01 07:24:24;;;;;;;13.30;6.40;;;;;;;27.62;21.35;100878.36;109641;1251;59806;-78
2024/04/01 07:26:51;;;;;;;26.30;7.00;;;;;;;27.64;21.48;100874.49;109610;1251;74237;-76
2024/04/01 07:29:19;;;;;;;17.70;7.60;;;;;;;27.73;21.81;100878.27;109623;1250;62924;-76
2024/04/01 07:31:46;;;;;;;15.30;7.50;;;;;;;27.79;21.66;100880.42;109664;1251;71945;-77
2024/04/01 07:34:14;;;;;;;16.40;7.80;;;;;;;27.77;21.61;100879.41;109565;1251;60352;-77
2024/04/01 07:36:41;;;;;;;16.30;6.30;;;;;;;27.71;21.68;100876.14;109671;1251;60448;-77
2024/04/01 07:39:08;;;;;;;14.80;5.90;;;;;;;27.81;22.08;100878.63;109829;1252;73796;-78
2024/04/01 07:41:36;;;;;;;13.50;7.10;;;;;;;28.18;22.28;100876.20;109701;1251;64160;-76
2024/04/01 07:44:03;;;;;;;17.80;7.00;;;;;;;28.56;21.93;100875.70;109689;1251;71721;-78
2024/04/01 07:46:30;;;;;;;12.30;6.30;;;;;;;28.91;21.91;100874.80;109615;1253;58507;-78
2024/04/01 07:48:58;;;;;;;11.80;5.80;;;;;;;29.23;21.53;100876.36;109690;1251;60399;-78
2024/04/01 07:51:25;;;;;;;14.40;6.40;;;;;;;29.43;21.08;100880.46;109629;1251;74200;-77
2024/04/01 07:53:53;;;;;;;12.90;6.00;;;;;;;29.58;21.09;100878.70;109673;1251;66413;-75
2024/04/01 07:56:23;;;;;;;14.00;5.60;;;;;;;29.73;21.21;100872.36;109591;1251;72577;-76
2024/04/01 07:58:50;;;;;;;12.20;6.10;;;;;;;30.05;21.16;100870.03;109538;1251;60040;-76
2024/04/01 08:01:17;;;;;;;15.50;5.10;;;;;;;30.33;20.76;100872.27;109677;1251;62252;-76
2024/04/01 08:03:45;;;;;;;13.80;6.40;;;;;;;30.55;20.77;100874.77;109581;1251;75859;-76
2024/04/01 08:06:12;;;;;;;18.80;6.50;;;;;;;30.71;20.74;100869.61;109698;1251;63925;-76
2024/04/01 08:08:39;;;;;;;12.80;5.70;;;;;;;30.86;20.30;100867.48;109642;1251;73571;-76
2024/04/01 08:11:07;;;;;;;13.30;6.00;;;;;;;30.94;20.13;100857.85;109561;1250;60197;-79
2024/04/01 08:13:35;;;;;;;11.30;5.70;;;;;;;30.98;20.16;100855.27;109631;1251;59255;-77
2024/04/01 08:16:03;;;;;;;13.20;6.20;;;;;;;31.12;20.54;100851.11;109632;1251;74099;-76
2024/04/01 08:18:31;;;;;;;19.50;6.10;;;;;;;31.34;20.37;100845.52;109676;1251;64800;-78
2024/04/01 08:20:59;;;;;;;11.20;5.50;;;;;;;31.58;20.66;100841.74;109589;1251;72534;-76
2024/04/01 08:23:28;;;;;;;16.60;6.00;;;;;;;31.76;20.50;100829.21;109607;1253;60659;-77
2024/04/01 08:25:57;;;;;;;15.50;6.50;;;;;;;31.85;20.04;100828.54;109625;1251;59708;-77
2024/04/01 08:28:24;;;;;;;13.40;5.60;;;;;;;31.87;19.92;100826.37;109625;1250;74887;-78
2024/04/01 08:30:51;;;;;;;15.40;5.60;;;;;;;31.78;19.98;100823.89;109651;1250;62261;-75
2024/04/01 08:33:20;;;;;;;19.50;6.50;;;;;;;31.66;20.06;100820.13;109598;1251;72656;-77
2024/04/01 08:35:47;;;;;;;16.40;5.90;;;;;;;31.55;20.00;100817.42;109682;1251;60984;-76
2024/04/01 08:38:15;;;;;;;16.50;6.80;;;;;;;31.42;20.11;100815.10;109644;1251;60908;-79
2024/04/01 08:40:50;;;;;;;19.20;6.40;;;;;;;31.38;19.96;100809.31;109694;1251;75128;-75
2024/04/01 08:43:23;;;;;;;14.70;6.90;;;;;;;31.22;20.25;100808.94;109700;1251;64647;-78
2024/04/01 08:45:51;;;;;;;19.80;6.10;;;;;;;31.12;20.26;100806.48;109530;1251;73219;-77
2024/04/01 08:48:18;;;;;;;17.70;5.60;;;;;;;31.10;20.43;100803.40;109527;1251;58655;-77
2024/04/01 08:50:50;;;;;;;13.70;5.90;;;;;;;31.03;20.57;100804.38;109634;1252;62248;-77
2024/04/01 08:53:23;;;;;;;15.40;5.00;;;;;;;30.82;20.90;100807.55;109678;1251;73134;-80
2024/04/01 08:55:50;;;;;;;13.90;5.20;;;;;;;30.58;20.98;100810.10;109644;1251;63920;-78
2024/04/01 08:58:17;;;;;;;23.20;6.10;;;;;;;30.36;21.21;100807.45;109627;1251;74469;-77
2024/04/01 09:00:46;;;;;;;11.60;3.30;;;;;;;30.08;21.66;100803.23;109489;1257;59591;-76
2024/04/01 09:03:13;;;;;;;11.90;5.00;;;;;;;29.96;22.05;100800.64;109588;1251;60488;-76
2024/04/01 09:05:41;;;;;;;11.90;4.30;;;;;;;29.99;22.16;100793.97;109649;1251;72318;-79
2024/04/01 09:08:08;;;;;;;18.50;3.70;;;;;;;30.10;21.98;100801.31;109636;1251;64266;-77
2024/04/01 09:10:36;;;;;;;9.90;3.40;;;;;;;30.04;22.05;100796.02;109443;1251;71722;-78
2024/04/01 09:13:03;;;;;;;10.70;4.50;;;;;;;29.74;22.25;100787.30;109592;1251;59166;-77
2024/04/01 09:15:31;;;;;;;10.10;3.00;;;;;;;29.33;22.67;100789.27;109629;1252;59628;-77
2024/04/01 09:17:58;;;;;;;15.70;3.60;;;;;;;28.98;23.16;100790.13;109562;1251;76179;-75
2024/04/01 09:20:25;;;;;;;16.70;4.00;;;;;;;28.75;23.46;100792.55;109639;1251;62257;-76
2024/04/01 09:22:53;;;;;;;16.90;5.30;;;;;;;28.69;23.63;100787.05;109540;1251;74608;-77
2024/04/01 09:25:20;;;;;;;11.60;4.20;;;;;;;28.81;23.87;100782.21;109505;1251;61783;-76
2024/04/01 09:27:47;;;;;;;10.40;3.70;;;;;;;28.94;23.74;100784.04;109638;1251;58908;-78
2024/04/01 09:30:15;;;;;;;14.30;3.90;;;;;;;29.03;23.65;100785.04;109606;1251;73753;-76
2024/04/01 09:32:43;;;;;;;14.60;4.00;;;;;;;29.04;23.72;100783.90;109645;1251;62046;-77
2024/04/01 09:35:11;;;;;;;11.90;4.70;;;;;;;29.11;23.80;100782.58;109696;1251;74669;-76
2024/04/01 09:37:39;;;;;;;13.70;4.70;;;;;;;29.16;23.52;100774.64;109592;1251;59098;-78
2024/04/01 09:40:07;;;;;;;10.00;3.80;;;;;;;29.11;23.36;100773.57;109646;1251;63046;-79
2024/04/01 09:42:35;;;;;;;11.40;4.00;;;;;;;29.09;23.61;100771.70;109653;1251;75607;-79
2024/04/01 09:45:04;;;;;;;9.60;4.10;;;;;;;29.21;24.04;100764.36;109667;1251;62715;-80
2024/04/01 09:47:37;;;;;;;15.60;4.20;;;;;;;29.28;23.52;100765.39;109579;1251;72796;-76
2024/04/01 09:50:05;;;;;;;7.20;3.50;;;;;;;29.25;23.82;100766.43;109627;1251;62091;-79
2024/04/01 09:52:36;;;;;;;15.60;3.70;;;;;;;29.22;23.72;100767.29;109634;1251;61806;-77
2024/04/01 09:55:07;;;;;;;10.10;2.30;;;;;;;29.04;23.77;100768.82;109570;1251;76001;-78
2024/04/01 09:57:57;;;;;;;12.50;2.70;;;;;;;28.78;24.21;100768.89;109618;1250;63507;-77
2024/04/01 10:00:26;;;;;;;11.90;2.90;;;;;;;28.69;24.48;100766.02;109637;1251;72526;-79
2024/04/01 10:03:18;;;;;;;7.20;2.60;;;;;;;28.79;24.34;100767.31;109577;1253;60690;-77
2024/04/01 10:06:24;;;;;;;15.00;3.20;;;;;;;28.95;24.31;100767.50;109625;1251;60150;-78
2024/04/01 10:09:00;;;;;;;14.90;2.60;;;;;;;29.03;24.30;100770.02;109659;1251;74614;-77
2024/04/01 10:11:46;;;;;;;11.00;2.40;;;;;;;28.93;24.54;100769.05;109665;1251;65871;-80
2024/04/01 10:14:51;;;;;;;11.30;2.90;;;;;;;28.69;24.75;100768.84;109546;1251;72510;-77
2024/04/01 10:17:43;;;;;;;11.00;3.00;;;;;;;28.33;25.14;100760.34;109633;1251;62280;-78
2024/04/01 10:20:48;;;;;;;12.80;2.70;;;;;;;28.05;25.83;100756.38;109667;1251;58887;-79
2024/04/01 10:23:34;;;;;;;7.90;1.70;;;;;;;27.71;26.36;100754.95;109644;1256;74974;-77
2024/04/01 10:26:17;;;;;;;9.50;2.30;;;;;;;27.44;26.68;100753.98;109629;1251;62392;-76
2024/04/01 10:29:33;;;;;;;11.90;3.30;;;;;;;27.20;27.10;100741.31;109648;1251;73889;-78
2024/04/01 10:32:06;;;;;;;8.80;2.70;;;;;;;27.04;27.18;100746.27;109538;1252;59726;-79
2024/04/01 10:34:43;;;;;;;13.20;2.50;;;;;;;26.85;27.59;100744.56;109706;1251;59059;-79
2024/04/01 10:37:25;;;;;;;12.00;2.50;;;;;;;26.63;27.83;100740.38;109914;1251;73429;-79
2024/04/01 10:40:21;;;;;;;8.50;2.90;;;;;;;26.51;28.22;100743.34;109909;1251;65074;-76
2024/04/01 10:43:14;;;;;;;8.20;2.20;;;;;;;26.40;28.38;100742.74;109757;1251;70881;-79
2024/04/01 10:46:01;;;;;;;9.40;2.10;;;;;;;26.22;28.35;100739.94;109705;1256;59465;-79
2024/04/01 10:48:29;;;;;;;10.60;2.00;;;;;;;26.06;28.69;100740.02;109734;1251;60974;-77
2024/04/01 10:51:34;;;;;;;8.80;3.50;;;;;;;26.02;28.93;100743.13;109590;1251;74478;-79
2024/04/01 10:54:05;;;;;;;12.20;3.80;;;;;;;25.98;28.93;100741.73;109639;1251;62764;-77
2024/04/01 10:57:03;;;;;;;14.60;2.40;;;;;;;25.89;29.01;100738.38;109647;1251;72058;-77
2024/04/01 10:59:37;;;;;;;13.20;2.80;;;;;;;25.74;29.13;100730.30;109626;1252;59939;-80
2024/04/01 11:02:13;;;;;;;;;;;;;;;25.63;29.62;100729.27;109673;1251;59093;-75
2024/04/01 11:05:05;;;;;;;11.30;2.10;;;;;;;25.55;29.39;100725.61;109663;1251;75483;-78
2024/04/01 11:07:52;;;;;;;12.20;2.60;;;;;;;25.39;29.56;100720.98;109639;1251;63931;-79
2024/04/01 11:10:21;;;;;;;5.10;2.20;;;;;;;25.21;29.68;100722.21;109655;1251;75056;-77
2024/04/01 11:13:01;;;;;;;15.50;2.90;;;;;;;25.09;29.95;100716.56;109583;1251;61237;-80
2024/04/01 11:15:29;;;;;;;9.40;2.60;;;;;;;24.98;30.13;100713.13;109658;1251;59401;-78
2024/04/01 11:18:10;;;;;;;8.50;2.50;;;;;;;24.93;30.56;100710.16;109469;1251;75089;-80
2024/04/01 11:21:03;;;;;;;14.40;2.20;;;;;;;24.95;30.80;100707.92;109702;1251;62456;-78
2024/04/01 11:23:34;;;;;;;6.10;1.90;;;;;;;25.00;30.81;100710.46;109591;1251;72038;-77
2024/04/01 11:26:23;;;;;;;11.30;3.20;;;;;;;24.97;30.95;100705.55;109602;1251;58915;-77
2024/04/01 11:28:57;;;;;;;12.20;2.70;;;;;;;24.95;30.96;100697.94;109645;1251;59154;-81
2024/04/01 11:31:24;;;;;;;7.80;2.00;;;;;;;24.97;31.25;100695.27;109632;1251;75132;-79
2024/04/01 11:34:09;;;;;;;12.30;2.50;;;;;;;24.96;31.29;100690.86;109658;1251;64157;-79
2024/04/01 11:36:42;;;;;;;10.40;2.30;;;;;;;24.93;31.42;100682.95;109670;1251;71209;-80
2024/04/01 11:39:10;;;;;;;11.20;2.20;;;;;;;24.90;31.53;100686.88;109766;1251;59355;-79